createdAt,value
2019-02-07T00:03:02.786Z,5.11
2019-02-07T00:07:08.474Z,5.28
2019-02-07T00:11:20.007Z,5.20
2019-02-07T00:15:25.764Z,5.32
2019-02-07T00:19:31.759Z,5.33
2019-02-07T00:23:37.824Z,5.19
2019-02-07T00:27:43.534Z,5.09
2019-02-07T00:31:49.531Z,4.63
2019-02-07T00:35:55.196Z,4.40
2019-02-07T00:40:01.264Z,4.50
2019-02-07T00:44:07.096Z,4.34
2019-02-07T00:48:12.871Z,4.26
2019-02-07T00:52:18.612Z,4.23
2019-02-07T00:56:24.326Z,4.05
2019-02-07T01:00:31.996Z,4.40
2019-02-07T01:04:37.859Z,4.62
2019-02-07T01:08:43.840Z,4.69
2019-02-07T01:12:49.574Z,4.77
2019-02-07T01:16:55.257Z,4.67
2019-02-07T01:21:00.946Z,4.68
2019-02-07T01:25:12.383Z,4.20
2019-02-07T01:29:18.140Z,4.25
2019-02-07T01:33:23.845Z,4.42
2019-02-07T01:37:29.518Z,4.52
2019-02-07T01:41:35.196Z,4.43
2019-02-07T01:45:40.895Z,4.35
2019-02-07T01:49:46.641Z,4.26
2019-02-07T01:53:52.304Z,4.22
2019-02-07T01:57:58.060Z,4.25
2019-02-07T02:02:05.208Z,4.23
2019-02-07T02:06:12.040Z,4.22
2019-02-07T02:10:29.993Z,4.22
2019-02-07T02:14:35.733Z,4.19
2019-02-07T02:18:41.414Z,4.13
2019-02-07T02:22:47.408Z,4.12
2019-02-07T02:26:53.102Z,4.17
2019-02-07T02:30:59.916Z,4.05
2019-02-07T02:35:08.324Z,4.10
2019-02-07T02:39:14.357Z,4.05
2019-02-07T02:43:20.278Z,4.03
2019-02-07T02:47:26.032Z,3.98
2019-02-07T02:51:31.700Z,3.93
2019-02-07T02:55:39.253Z,3.93
2019-02-07T02:59:45.011Z,3.97
2019-02-07T03:03:52.497Z,3.94
2019-02-07T03:08:12.388Z,3.92
2019-02-07T03:12:19.737Z,4.03
2019-02-07T03:16:36.024Z,4.04
2019-02-07T03:20:58.909Z,3.98
2019-02-07T03:25:12.139Z,3.96
2019-02-07T03:29:26.669Z,3.92
2019-02-07T03:33:34.004Z,4.09
2019-02-07T03:37:50.473Z,4.21
2019-02-07T03:42:06.469Z,4.18
2019-02-07T03:46:20.051Z,4.08
2019-02-07T03:50:43.945Z,4.04
2019-02-07T03:54:51.253Z,4.12
2019-02-07T03:59:04.659Z,3.70
2019-02-07T04:03:12.043Z,3.61
2019-02-07T04:07:35.106Z,3.49
2019-02-07T04:11:58.755Z,3.17
2019-02-07T04:16:24.330Z,3.00
2019-02-07T04:20:37.603Z,3.08
2019-02-07T04:24:49.117Z,3.59
2019-02-07T04:28:56.468Z,3.74
2019-02-07T04:33:12.722Z,3.66
2019-02-07T04:37:22.996Z,3.82
2019-02-07T04:41:42.166Z,3.90
2019-02-07T04:45:49.564Z,3.64
2019-02-07T04:49:57.009Z,3.33
2019-02-07T04:54:04.329Z,3.38
2019-02-07T04:58:11.852Z,3.53
2019-02-07T05:02:31.477Z,3.79
2019-02-07T05:06:55.048Z,3.88
2019-02-07T05:11:18.571Z,3.93
2019-02-07T05:15:41.402Z,4.10
2019-02-07T05:19:48.800Z,4.13
2019-02-07T05:23:58.890Z,4.04
2019-02-07T05:28:04.474Z,3.71
2019-02-07T05:32:11.884Z,3.72
2019-02-07T05:36:22.141Z,3.78
2019-02-07T05:40:45.666Z,3.79
2019-02-07T05:45:01.968Z,3.70
2019-02-07T05:49:15.123Z,3.36
2019-02-07T05:53:38.886Z,3.40
2019-02-07T05:57:48.637Z,3.88
2019-02-07T06:01:55.954Z,4.12
2019-02-07T06:06:05.992Z,4.27
2019-02-07T06:10:33.052Z,4.35
2019-02-07T06:14:49.094Z,4.39
2019-02-07T06:18:56.415Z,4.51
2019-02-07T06:23:12.507Z,4.61
2019-02-07T06:27:33.020Z,4.53
2019-02-07T06:31:51.957Z,4.62
2019-02-07T06:36:05.225Z,4.75
2019-02-07T06:40:14.349Z,4.80
2019-02-07T06:44:21.685Z,4.87
2019-02-07T06:48:31.974Z,4.77
2019-02-07T06:52:42.289Z,4.68
2019-02-07T06:57:05.869Z,4.90
2019-02-07T07:01:25.148Z,5.05
2019-02-07T07:05:48.131Z,5.05
2019-02-07T07:10:01.124Z,4.69
2019-02-07T07:14:23.816Z,4.89
2019-02-07T07:18:46.287Z,5.10
2019-02-07T07:23:07.062Z,5.17
2019-02-07T07:27:30.546Z,5.28
2019-02-07T07:31:37.920Z,5.32
2019-02-07T07:35:45.410Z,5.42
2019-02-07T07:40:01.747Z,5.57
2019-02-07T07:44:09.142Z,5.60
2019-02-07T07:48:31.199Z,5.65
2019-02-07T07:52:38.728Z,5.43
2019-02-07T07:56:51.972Z,5.58
2019-02-07T08:01:15.572Z,5.58
2019-02-07T08:05:38.990Z,5.51
2019-02-07T08:09:50.452Z,5.50
2019-02-07T08:13:57.771Z,5.29
2019-02-07T08:18:03.306Z,5.42
2019-02-07T08:22:26.841Z,5.60
2019-02-07T08:26:32.247Z,5.22
2019-02-07T08:30:42.967Z,5.37
2019-02-07T08:34:53.037Z,5.44
2019-02-07T08:39:02.809Z,5.64
2019-02-07T08:43:15.937Z,5.79
2019-02-07T08:47:21.386Z,5.87
2019-02-07T08:51:32.639Z,5.83
2019-02-07T08:55:55.934Z,5.73
2019-02-07T09:00:01.538Z,5.33
2019-02-07T09:04:14.698Z,5.28
2019-02-07T09:08:22.333Z,5.32
2019-02-07T09:12:41.447Z,5.33
2019-02-07T09:16:54.644Z,5.38
2019-02-07T09:21:00.102Z,5.51
2019-02-07T09:25:15.713Z,5.65
2019-02-07T09:29:39.278Z,5.77
2019-02-07T09:34:02.790Z,5.90
2019-02-07T09:38:13.833Z,6.10
2019-02-07T09:42:24.500Z,6.27
2019-02-07T09:46:50.012Z,6.39
2019-02-07T09:51:03.305Z,6.55
2019-02-07T09:55:29.431Z,6.78
2019-02-07T09:59:36.806Z,6.79
2019-02-07T10:03:45.053Z,6.56
2019-02-07T10:07:55.425Z,6.50
2019-02-07T10:12:03.018Z,6.39
2019-02-07T10:16:10.471Z,6.37
2019-02-07T10:20:22.146Z,6.30
2019-02-07T10:24:45.544Z,6.35
2019-02-07T10:29:09.044Z,6.33
2019-02-07T10:33:22.335Z,6.42
2019-02-07T10:37:46.283Z,6.35
2019-02-07T10:42:08.509Z,6.28
2019-02-07T10:46:31.619Z,6.31
2019-02-07T10:50:44.449Z,6.57
2019-02-07T10:55:08.257Z,6.40
2019-02-07T10:59:13.985Z,6.54
2019-02-07T11:09:07.226Z,6.84
2019-02-07T11:13:31.012Z,6.79
2019-02-07T11:17:44.306Z,6.72
2019-02-07T11:21:51.826Z,6.75
2019-02-07T11:26:15.456Z,6.86
2019-02-07T11:30:35.316Z,6.93
2019-02-07T11:34:42.715Z,7.05
2019-02-07T11:38:57.058Z,6.95
2019-02-07T11:43:13.364Z,7.01
2019-02-07T11:47:26.679Z,7.06
2019-02-07T11:51:36.504Z,7.14
2019-02-07T11:55:43.894Z,7.26
2019-02-07T12:00:00.241Z,7.15
2019-02-07T12:04:20.333Z,7.25
2019-02-07T12:08:42.732Z,7.51
2019-02-07T12:13:05.690Z,7.70
2019-02-07T12:17:18.948Z,7.85
2019-02-07T12:21:35.239Z,8.04
2019-02-07T12:25:50.413Z,8.15
2019-02-07T12:30:15.598Z,8.31
2019-02-07T12:34:26.033Z,8.53
2019-02-07T12:38:40.864Z,8.64
2019-02-07T12:42:52.315Z,8.71
2019-02-07T12:47:00.679Z,8.84
2019-02-07T12:51:24.409Z,9.00
2019-02-07T12:55:52.361Z,8.96
2019-02-07T12:59:57.117Z,9.10
2019-02-07T13:04:16.546Z,9.41
2019-02-07T13:08:23.926Z,9.60
2019-02-07T13:12:38.234Z,9.61
2019-02-07T13:16:52.486Z,9.64
2019-02-07T13:21:14.892Z,9.56
2019-02-07T13:25:31.464Z,9.64
2019-02-07T13:29:54.970Z,9.77
2019-02-07T13:34:18.444Z,9.68
2019-02-07T13:38:28.523Z,9.54
2019-02-07T13:42:36.649Z,9.30
2019-02-07T13:46:49.412Z,9.22
2019-02-07T13:50:59.461Z,9.25
2019-02-07T13:55:11.173Z,9.37
2019-02-07T13:59:21.177Z,9.47
2019-02-07T14:03:44.707Z,9.50
2019-02-07T14:07:52.105Z,9.32
2019-02-07T14:11:59.424Z,9.23
2019-02-07T14:16:09.790Z,9.20
2019-02-07T14:20:24.195Z,9.01
2019-02-07T14:24:32.336Z,9.06
2019-02-07T14:28:40.775Z,9.39
2019-02-07T14:32:51.077Z,9.55
2019-02-07T14:37:01.302Z,9.60
2019-02-07T14:41:08.712Z,9.51
2019-02-07T14:45:22.534Z,9.25
2019-02-07T14:49:28.209Z,9.30
2019-02-07T14:53:53.511Z,9.44
2019-02-07T14:57:59.211Z,9.62
2019-02-07T15:02:24.237Z,9.60
2019-02-07T15:06:30.035Z,9.62
2019-02-07T15:10:35.792Z,9.62
2019-02-07T15:14:41.539Z,9.69
2019-02-07T15:18:47.309Z,9.72
2019-02-07T15:22:54.794Z,9.66
2019-02-07T15:27:00.485Z,9.72
2019-02-07T15:31:06.509Z,9.77
2019-02-07T15:35:28.517Z,9.85
2019-02-07T15:39:49.634Z,9.83
2019-02-07T15:43:55.488Z,9.91
2019-02-07T15:48:01.168Z,9.98
2019-02-07T15:52:26.256Z,9.63
2019-02-07T15:56:31.961Z,9.45
2019-02-07T16:00:54.250Z,9.38
2019-02-07T16:05:18.005Z,9.36
2019-02-07T16:10:18.045Z,9.53
2019-02-07T16:14:23.874Z,9.53
2019-02-07T16:19:17.716Z,9.53
2019-02-07T16:23:23.533Z,9.53
2019-02-07T16:27:29.217Z,9.62
2019-02-07T16:31:34.955Z,9.72
2019-02-07T16:36:17.046Z,9.74
2019-02-07T16:40:23.736Z,9.72
2019-02-07T16:49:19.685Z,9.64
2019-02-07T16:53:25.406Z,9.43
2019-02-07T16:57:31.385Z,9.40
2019-02-07T17:02:17.294Z,9.34
2019-02-07T17:06:23.094Z,9.33
2019-02-07T17:10:41.832Z,9.16
2019-02-07T17:15:18.795Z,8.88
2019-02-07T17:19:24.554Z,8.85
2019-02-07T17:23:30.995Z,8.99
2019-02-07T17:27:36.702Z,8.83
2019-02-07T17:31:42.432Z,8.90
2019-02-07T17:35:50.014Z,9.00
2019-02-07T17:40:27.465Z,8.79
2019-02-07T17:44:33.816Z,8.78
2019-02-07T17:48:39.674Z,8.69
2019-02-07T17:52:45.376Z,8.52
2019-02-07T17:56:51.158Z,8.50
2019-02-07T18:01:18.032Z,8.35
2019-02-07T18:05:23.850Z,8.48
2019-02-07T18:09:29.543Z,8.56
2019-02-07T18:13:35.832Z,8.63
2019-02-07T18:17:41.510Z,8.64
2019-02-07T18:21:47.267Z,8.55
2019-02-07T18:30:23.196Z,8.53
2019-02-07T18:34:29.027Z,8.65
2019-02-07T18:38:34.706Z,8.87
2019-02-07T18:42:40.413Z,8.98
2019-02-07T18:46:46.129Z,8.98
2019-02-07T18:50:51.820Z,8.92
2019-02-07T18:54:57.524Z,8.90
2019-02-07T18:59:18.335Z,8.75
2019-02-07T19:08:17.856Z,8.80
2019-02-07T19:12:23.657Z,8.89
2019-02-07T19:16:29.378Z,8.97
2019-02-07T19:20:35.049Z,8.98
2019-02-07T19:24:40.743Z,8.99
2019-02-07T19:28:46.427Z,8.99
2019-02-07T19:32:53.099Z,9.02
2019-02-07T19:36:58.867Z,9.02
2019-02-07T19:41:05.032Z,8.83
2019-02-07T19:45:14.971Z,8.60
2019-02-07T19:49:21.183Z,8.53
2019-02-07T19:53:26.946Z,8.21
2019-02-07T19:57:32.644Z,8.09
2019-02-07T20:01:57.732Z,8.02
2019-02-07T20:06:03.475Z,7.86
2019-02-07T20:10:19.019Z,7.80
2019-02-07T20:14:24.752Z,8.02
2019-02-07T20:18:30.438Z,7.99
2019-02-07T20:23:18.671Z,8.04
2019-02-07T20:27:24.382Z,7.89
2019-02-07T20:32:18.260Z,7.77
2019-02-07T20:36:23.994Z,7.68
2019-02-07T20:41:17.462Z,7.57
2019-02-07T20:45:23.746Z,7.47
2019-02-07T20:50:18.787Z,7.16
2019-02-07T20:54:24.557Z,6.99
2019-02-07T20:59:18.703Z,6.89
2019-02-07T21:04:16.627Z,7.03
2019-02-07T21:08:22.308Z,6.92
2019-02-07T21:12:28.250Z,6.84
2019-02-07T21:17:18.849Z,6.78
2019-02-07T21:21:24.536Z,6.78
2019-02-07T21:26:16.268Z,6.92
2019-02-07T21:30:29.170Z,6.92
2019-02-07T21:35:17.949Z,6.85
2019-02-07T21:39:23.611Z,6.86
2019-02-07T21:44:17.347Z,6.77
2019-02-07T21:48:23.024Z,6.94
2019-02-07T21:52:28.716Z,7.12
2019-02-07T21:56:34.445Z,7.16
2019-02-07T22:00:46.092Z,7.21
2019-02-07T22:09:18.936Z,6.81
2019-02-07T22:13:24.641Z,6.79
2019-02-07T22:17:30.336Z,6.64
2019-02-07T22:21:36.926Z,6.53
2019-02-07T22:25:42.626Z,6.56
2019-02-07T22:29:48.580Z,6.55
2019-02-07T22:34:18.187Z,6.64
2019-02-07T22:38:23.952Z,6.66
2019-02-07T22:42:29.821Z,6.66
2019-02-07T22:46:35.516Z,6.69
2019-02-07T22:50:41.179Z,6.64
2019-02-07T22:54:46.865Z,6.57
2019-02-07T22:59:19.550Z,6.55
2019-02-07T23:03:25.226Z,6.35
2019-02-07T23:07:30.934Z,6.28
2019-02-07T23:11:56.055Z,6.31
2019-02-07T23:16:20.099Z,6.21
2019-02-07T23:20:26.140Z,6.24
2019-02-07T23:24:32.161Z,6.36
2019-02-07T23:28:37.995Z,6.33
2019-02-07T23:32:43.925Z,6.36
2019-02-07T23:36:50.647Z,6.42
2019-02-07T23:41:19.775Z,6.56
2019-02-07T23:45:25.879Z,6.59
2019-02-07T23:49:31.629Z,6.68
2019-02-07T23:53:37.413Z,6.67
2019-02-07T23:57:43.420Z,6.59
